createdAt,value
2022-11-08T00:02:25.397Z,7.18
2022-11-08T00:04:52.597Z,7.12
2022-11-08T00:07:38.024Z,7.13
2022-11-08T00:10:24.708Z,7.11
2022-11-08T00:13:10.476Z,7.10
2022-11-08T00:15:38.940Z,7.09
2022-11-08T00:18:07.994Z,7.04
2022-11-08T00:20:35.219Z,7.02
2022-11-08T00:23:02.356Z,7.01
2022-11-08T00:25:29.305Z,7.02
2022-11-08T00:27:57.406Z,6.99
2022-11-08T00:30:24.545Z,7.02
2022-11-08T00:32:51.536Z,7.01
2022-11-08T00:35:19.821Z,7.01
2022-11-08T00:37:47.072Z,6.97
2022-11-08T00:40:14.205Z,6.98
2022-11-08T00:42:41.145Z,6.96
2022-11-08T00:45:08.801Z,6.95
2022-11-08T00:47:35.825Z,6.92
2022-11-08T00:50:02.849Z,6.90
2022-11-08T00:52:31.137Z,6.86
2022-11-08T00:54:58.094Z,6.84
2022-11-08T00:57:46.755Z,6.85
2022-11-08T01:00:13.895Z,6.83
2022-11-08T01:02:40.930Z,6.82
2022-11-08T01:05:08.544Z,6.79
2022-11-08T01:07:38.376Z,6.81
2022-11-08T01:10:06.459Z,6.82
2022-11-08T01:12:33.378Z,6.81
2022-11-08T01:15:00.393Z,6.79
2022-11-08T01:17:27.462Z,6.81
2022-11-08T01:19:54.450Z,6.78
2022-11-08T01:22:21.386Z,6.77
2022-11-08T01:24:49.728Z,6.75
2022-11-08T01:27:16.659Z,6.73
2022-11-08T01:29:43.885Z,6.73
2022-11-08T01:32:10.803Z,6.72
2022-11-08T01:34:37.780Z,6.70
2022-11-08T01:37:04.733Z,6.69
2022-11-08T01:39:33.100Z,6.66
2022-11-08T01:42:01.534Z,6.65
2022-11-08T01:44:28.513Z,6.63
2022-11-08T01:46:55.497Z,6.65
2022-11-08T01:49:35.191Z,6.66
2022-11-08T01:52:28.431Z,6.62
2022-11-08T01:55:04.157Z,6.62
2022-11-08T01:57:37.272Z,6.62
2022-11-08T02:00:07.087Z,6.61
2022-11-08T02:02:37.076Z,6.61
2022-11-08T02:05:06.819Z,6.62
2022-11-08T02:07:34.385Z,6.60
2022-11-08T02:10:03.649Z,6.58
2022-11-08T02:12:32.052Z,6.55
2022-11-08T02:14:59.722Z,6.54
2022-11-08T02:17:26.771Z,6.52
2022-11-08T02:19:53.923Z,6.48
2022-11-08T02:22:28.065Z,6.48
2022-11-08T02:24:58.469Z,6.47
2022-11-08T02:27:26.347Z,6.45
2022-11-08T02:29:53.647Z,6.43
2022-11-08T02:32:21.320Z,6.44
2022-11-08T02:34:52.343Z,6.45
2022-11-08T02:37:21.128Z,6.43
2022-11-08T02:39:48.328Z,6.41
2022-11-08T02:42:21.263Z,6.40
2022-11-08T02:44:48.709Z,6.40
2022-11-08T02:47:15.957Z,6.39
2022-11-08T02:49:43.066Z,6.39
2022-11-08T02:52:10.437Z,6.37
2022-11-08T02:54:37.396Z,6.36
2022-11-08T02:57:04.353Z,6.33
2022-11-08T02:59:32.695Z,6.32
2022-11-08T03:01:59.793Z,6.31
2022-11-08T03:04:26.924Z,6.31
2022-11-08T03:06:53.903Z,6.31
2022-11-08T03:09:20.876Z,6.29
2022-11-08T03:11:47.927Z,6.28
2022-11-08T03:14:14.991Z,6.24
2022-11-08T03:16:43.351Z,6.20
2022-11-08T03:19:11.802Z,6.19
2022-11-08T03:21:38.853Z,6.18
2022-11-08T03:24:06.501Z,6.16
2022-11-08T03:26:33.478Z,6.17
2022-11-08T03:29:00.485Z,6.16
2022-11-08T03:31:27.545Z,6.14
2022-11-08T03:33:55.936Z,6.13
2022-11-08T03:36:22.914Z,6.12
2022-11-08T03:38:50.872Z,6.14
2022-11-08T03:41:17.831Z,6.16
2022-11-08T03:43:47.343Z,6.15
2022-11-08T03:46:14.270Z,6.16
2022-11-08T03:48:41.378Z,6.14
2022-11-08T03:51:09.829Z,6.14
2022-11-08T03:53:36.912Z,6.16
2022-11-08T03:56:04.015Z,6.17
2022-11-08T03:58:30.998Z,6.14
2022-11-08T04:00:58.304Z,6.15
2022-11-08T04:03:25.490Z,6.14
2022-11-08T04:05:52.394Z,6.15
2022-11-08T04:08:20.994Z,6.18
2022-11-08T04:10:48.404Z,6.22
2022-11-08T04:13:33.583Z,6.22
2022-11-08T04:16:00.668Z,6.21
2022-11-08T04:18:46.033Z,6.23
2022-11-08T04:21:19.573Z,6.23
2022-11-08T04:23:49.372Z,6.24
2022-11-08T04:26:17.113Z,6.24
2022-11-08T04:28:44.325Z,6.25
2022-11-08T04:31:13.489Z,6.28
2022-11-08T04:33:40.793Z,6.25
2022-11-08T04:36:11.095Z,6.25
2022-11-08T04:38:38.206Z,6.24
2022-11-08T04:41:10.678Z,6.24
2022-11-08T04:43:38.268Z,6.25
2022-11-08T04:46:08.248Z,6.25
2022-11-08T04:48:35.591Z,6.25
2022-11-08T04:51:04.149Z,6.25
2022-11-08T04:53:31.821Z,6.24
2022-11-08T04:56:04.165Z,6.24
2022-11-08T04:58:35.438Z,6.28
2022-11-08T05:01:03.922Z,6.29
2022-11-08T05:03:33.251Z,6.29
2022-11-08T05:06:05.110Z,6.27
2022-11-08T05:08:32.237Z,6.28
2022-11-08T05:11:03.761Z,6.28
2022-11-08T05:13:31.302Z,6.28
2022-11-08T05:16:01.681Z,6.29
2022-11-08T05:18:28.742Z,6.31
2022-11-08T05:21:14.134Z,6.33
2022-11-08T05:23:41.183Z,6.35
2022-11-08T05:26:09.163Z,6.35
2022-11-08T05:28:36.309Z,6.38
2022-11-08T05:31:04.845Z,6.42
2022-11-08T05:33:31.775Z,6.49
2022-11-08T05:36:05.681Z,6.55
2022-11-08T05:38:33.725Z,6.64
2022-11-08T05:41:04.265Z,6.72
2022-11-08T05:43:31.723Z,6.77
2022-11-08T05:45:58.805Z,6.81
2022-11-08T05:48:27.202Z,6.86
2022-11-08T05:50:54.529Z,6.88
2022-11-08T05:53:22.010Z,6.89
2022-11-08T05:55:49.289Z,6.91
2022-11-08T05:58:16.705Z,6.94
2022-11-08T06:00:43.761Z,7.01
2022-11-08T06:03:10.816Z,7.09
2022-11-08T06:05:39.370Z,7.20
2022-11-08T06:08:06.329Z,7.29
2022-11-08T06:10:33.765Z,7.36
2022-11-08T06:13:01.212Z,7.46
2022-11-08T06:15:28.297Z,7.58
2022-11-08T06:17:55.216Z,7.72
2022-11-08T06:20:22.262Z,7.94
2022-11-08T06:22:50.638Z,8.20
2022-11-08T06:25:17.906Z,8.46
2022-11-08T06:27:45.250Z,8.75
2022-11-08T06:30:13.316Z,9.02
2022-11-08T06:32:40.461Z,9.30
2022-11-08T06:35:08.336Z,9.54
2022-11-08T06:37:35.439Z,9.76
2022-11-08T06:40:04.084Z,9.99
2022-11-08T06:42:31.012Z,10.22
2022-11-08T06:44:58.025Z,10.45
2022-11-08T06:47:25.046Z,10.72
2022-11-08T06:49:52.020Z,10.98
2022-11-08T06:52:18.960Z,11.27
2022-11-08T06:54:45.883Z,11.55
2022-11-08T06:57:14.227Z,11.79
2022-11-08T06:59:41.438Z,11.97
2022-11-08T07:02:11.627Z,12.13
2022-11-08T07:04:38.754Z,12.23
2022-11-08T07:07:05.776Z,12.36
2022-11-08T07:09:32.824Z,12.49
2022-11-08T07:12:02.998Z,12.59
2022-11-08T07:14:34.444Z,12.64
2022-11-08T07:17:01.521Z,12.76
2022-11-08T07:19:28.506Z,12.87
2022-11-08T07:21:55.527Z,13.06
2022-11-08T07:24:22.524Z,13.20
2022-11-08T07:26:49.583Z,13.36
2022-11-08T07:29:16.646Z,13.54
2022-11-08T07:31:44.977Z,13.77
2022-11-08T07:34:12.035Z,13.97
2022-11-08T07:36:39.030Z,14.16
2022-11-08T07:39:06.905Z,14.25
2022-11-08T07:41:34.038Z,14.49
2022-11-08T07:44:01.189Z,14.78
2022-11-08T07:46:28.256Z,14.95
2022-11-08T07:48:56.609Z,15.16
2022-11-08T07:51:23.690Z,15.39
2022-11-08T07:53:50.933Z,15.59
2022-11-08T07:56:17.860Z,15.84
2022-11-08T07:58:44.879Z,16.10
2022-11-08T08:01:12.109Z,16.32
2022-11-08T08:03:39.173Z,16.56
2022-11-08T08:06:07.620Z,16.78
2022-11-08T08:08:34.569Z,16.97
2022-11-08T08:11:02.182Z,17.14
2022-11-08T08:13:29.532Z,17.29
2022-11-08T08:16:01.195Z,17.38
2022-11-08T08:18:29.002Z,17.48
2022-11-08T08:20:55.986Z,17.66
2022-11-08T08:23:24.392Z,17.80
2022-11-08T08:25:51.366Z,17.92
2022-11-08T08:28:18.425Z,18.06
2022-11-08T08:30:45.777Z,18.15
2022-11-08T08:33:27.869Z,18.29
2022-11-08T08:35:56.464Z,18.42
2022-11-08T08:38:24.914Z,18.55
2022-11-08T08:40:52.011Z,18.63
2022-11-08T08:43:19.800Z,18.59
2022-11-08T08:45:47.618Z,18.69
2022-11-08T08:48:14.744Z,18.72
2022-11-08T08:50:42.209Z,18.90
2022-11-08T08:53:10.427Z,19.05
2022-11-08T08:55:39.800Z,19.07
2022-11-08T08:58:06.744Z,19.23
2022-11-08T09:03:21.193Z,19.42
2022-11-08T09:05:49.098Z,19.45
2022-11-08T09:08:16.227Z,19.36
2022-11-08T09:10:44.685Z,19.19
2022-11-08T09:13:11.649Z,19.08
2022-11-08T09:15:39.670Z,19.09
2022-11-08T09:18:07.158Z,19.08
2022-11-08T09:20:34.265Z,19.23
2022-11-08T09:23:02.665Z,19.56
2022-11-08T09:25:29.635Z,19.86
2022-11-08T09:27:57.960Z,20.13
2022-11-08T09:30:25.061Z,20.42
2022-11-08T09:33:00.810Z,20.67
2022-11-08T09:35:29.570Z,20.88
2022-11-08T09:37:57.233Z,20.97
2022-11-08T09:40:29.659Z,21.03
2022-11-08T09:43:06.861Z,20.98
2022-11-08T09:45:37.679Z,21.02
2022-11-08T09:48:08.027Z,20.88
2022-11-08T09:50:39.431Z,20.90
2022-11-08T09:53:18.082Z,21.01
2022-11-08T09:55:51.300Z,21.04
2022-11-08T09:58:25.518Z,21.07
2022-11-08T10:00:53.597Z,21.07
2022-11-08T10:03:25.849Z,21.12
2022-11-08T10:06:20.184Z,21.36
2022-11-08T10:08:54.883Z,21.83
2022-11-08T10:11:33.687Z,22.19
2022-11-08T10:14:24.445Z,22.46
2022-11-08T10:16:58.445Z,22.31
2022-11-08T10:19:43.268Z,22.15
2022-11-08T10:22:18.229Z,22.03
2022-11-08T10:24:47.553Z,21.96
2022-11-08T10:27:19.710Z,21.89
2022-11-08T10:29:58.304Z,21.91
2022-11-08T10:32:25.751Z,22.14
2022-11-08T10:35:06.494Z,22.26
2022-11-08T10:37:34.154Z,22.22
2022-11-08T10:40:12.274Z,22.40
2022-11-08T10:42:45.728Z,22.75
2022-11-08T10:45:14.281Z,23.03
2022-11-08T10:47:48.639Z,23.23
2022-11-08T10:50:18.804Z,23.41
2022-11-08T10:52:52.930Z,23.48
2022-11-08T10:55:28.885Z,23.61
2022-11-08T10:57:55.932Z,23.77
2022-11-08T11:00:30.250Z,23.92
2022-11-08T11:02:59.314Z,24.07
2022-11-08T11:05:32.172Z,24.21
2022-11-08T11:08:05.329Z,24.20
2022-11-08T11:10:33.661Z,24.11
2022-11-08T11:13:04.221Z,23.96
2022-11-08T11:15:34.663Z,23.80
2022-11-08T11:18:02.126Z,23.48
2022-11-08T11:20:29.334Z,23.21
2022-11-08T11:22:58.926Z,23.00
2022-11-08T11:25:25.977Z,22.89
2022-11-08T11:27:55.913Z,23.03
2022-11-08T11:30:28.329Z,23.28
2022-11-08T11:33:06.655Z,23.56
2022-11-08T11:35:46.706Z,23.49
2022-11-08T11:38:30.296Z,23.33
2022-11-08T11:41:08.331Z,23.15
2022-11-08T11:43:43.122Z,22.87
2022-11-08T11:46:17.245Z,22.64
2022-11-08T11:48:49.002Z,22.44
2022-11-08T11:51:16.310Z,22.26
2022-11-08T11:53:48.624Z,22.09
2022-11-08T11:56:37.845Z,21.90
2022-11-08T11:59:38.773Z,21.68
2022-11-08T12:02:51.856Z,21.55
2022-11-08T12:05:32.781Z,21.34
2022-11-08T12:08:14.735Z,21.20
2022-11-08T12:11:03.821Z,21.06
2022-11-08T12:13:42.386Z,20.92
2022-11-08T12:16:16.811Z,20.85
2022-11-08T12:19:01.454Z,20.76
2022-11-08T12:21:38.036Z,20.62
2022-11-08T12:24:14.028Z,20.48
2022-11-08T12:26:50.236Z,20.43
2022-11-08T12:29:24.361Z,20.38
2022-11-08T12:32:05.457Z,20.34
2022-11-08T12:34:43.709Z,20.32
2022-11-08T12:37:23.249Z,20.31
2022-11-08T12:39:56.821Z,20.24
2022-11-08T12:42:48.214Z,20.18
2022-11-08T12:45:47.265Z,20.02
2022-11-08T12:48:24.694Z,19.96
2022-11-08T12:51:01.743Z,20.02
2022-11-08T12:53:44.904Z,20.13
2022-11-08T12:56:15.519Z,20.18
2022-11-08T12:58:45.725Z,20.25
2022-11-08T13:01:14.701Z,20.30
2022-11-08T13:04:13.506Z,20.31
2022-11-08T13:06:47.932Z,20.32
2022-11-08T13:09:27.244Z,20.38
2022-11-08T13:12:02.092Z,20.46
2022-11-08T13:14:30.081Z,20.64
2022-11-08T13:17:15.356Z,20.76
2022-11-08T13:19:56.885Z,20.87
2022-11-08T13:22:58.381Z,20.78
2022-11-08T13:25:40.571Z,20.59
2022-11-08T13:28:37.301Z,20.53
2022-11-08T13:31:26.414Z,20.52
2022-11-08T13:34:11.493Z,20.50
2022-11-08T13:36:52.733Z,20.54
2022-11-08T13:39:51.956Z,20.59
2022-11-08T13:42:39.748Z,20.66
2022-11-08T13:45:29.919Z,20.63
2022-11-08T13:47:59.500Z,20.56
2022-11-08T13:50:47.157Z,20.51
2022-11-08T13:53:54.623Z,20.45
2022-11-08T13:56:47.072Z,20.42
2022-11-08T13:59:47.955Z,20.36
2022-11-08T14:02:46.745Z,20.26
2022-11-08T14:05:28.680Z,20.17
2022-11-08T14:08:21.797Z,20.11
2022-11-08T14:11:38.902Z,20.02
2022-11-08T14:14:15.819Z,19.93
2022-11-08T14:16:58.236Z,19.84
2022-11-08T14:19:30.688Z,19.74
2022-11-08T14:21:58.985Z,19.64
2022-11-08T14:24:29.852Z,19.52
2022-11-08T14:26:56.989Z,19.38
2022-11-08T14:29:25.273Z,19.25
2022-11-08T14:32:04.320Z,19.10
2022-11-08T14:34:34.821Z,18.95
2022-11-08T14:37:02.896Z,18.82
2022-11-08T14:39:31.849Z,18.67
2022-11-08T14:42:00.922Z,18.54
2022-11-08T14:44:29.566Z,18.41
2022-11-08T14:46:57.646Z,18.27
2022-11-08T14:49:31.310Z,18.11
2022-11-08T14:52:14.592Z,17.97
2022-11-08T14:54:43.277Z,17.85
2022-11-08T14:57:31.615Z,17.68
2022-11-08T15:00:00.889Z,17.53
2022-11-08T15:02:28.034Z,17.39
2022-11-08T15:04:55.546Z,17.28
2022-11-08T15:07:25.573Z,17.18
2022-11-08T15:09:53.339Z,17.08
2022-11-08T15:12:22.293Z,17.00
2022-11-08T15:14:53.677Z,16.91
2022-11-08T15:17:32.448Z,16.81
2022-11-08T15:20:18.383Z,16.73
2022-11-08T15:22:48.154Z,16.66
2022-11-08T15:25:22.168Z,16.59
2022-11-08T15:27:51.033Z,16.53
2022-11-08T15:30:20.278Z,16.47
2022-11-08T15:32:50.747Z,16.41
2022-11-08T15:35:22.614Z,16.36
2022-11-08T15:37:52.864Z,16.29
2022-11-08T15:40:24.185Z,16.23
2022-11-08T15:42:52.254Z,16.19
2022-11-08T15:45:26.233Z,16.11
2022-11-08T15:47:59.703Z,16.03
2022-11-08T15:50:31.487Z,15.93
2022-11-08T15:53:02.082Z,15.83
2022-11-08T15:55:31.904Z,15.73
2022-11-08T15:57:59.564Z,15.66
2022-11-08T16:00:29.832Z,15.61
2022-11-08T16:02:57.034Z,15.54
2022-11-08T16:05:26.234Z,15.50
2022-11-08T16:07:54.124Z,15.45
2022-11-08T16:10:27.234Z,15.43
2022-11-08T16:12:54.813Z,15.41
2022-11-08T16:15:24.867Z,15.40
2022-11-08T16:17:51.921Z,15.35
2022-11-08T16:20:27.747Z,15.31
2022-11-08T16:22:55.565Z,15.31
2022-11-08T16:25:26.068Z,15.30
2022-11-08T16:27:56.292Z,15.27
2022-11-08T16:30:23.772Z,15.23
2022-11-08T16:32:51.138Z,15.19
2022-11-08T16:35:18.662Z,15.14
2022-11-08T16:37:46.388Z,15.09
2022-11-08T16:40:17.074Z,15.06
2022-11-08T16:42:46.418Z,15.05
2022-11-08T16:45:14.278Z,15.01
2022-11-08T16:47:43.137Z,14.97
2022-11-08T16:50:15.396Z,14.91
2022-11-08T16:52:42.650Z,14.86
2022-11-08T16:55:17.436Z,14.82
2022-11-08T16:57:46.384Z,14.78
2022-11-08T17:00:16.228Z,14.68
2022-11-08T17:02:46.542Z,14.61
2022-11-08T17:05:17.467Z,14.52
2022-11-08T17:07:44.748Z,14.42
2022-11-08T17:10:17.339Z,14.37
2022-11-08T17:12:44.335Z,14.33
2022-11-08T17:15:15.269Z,14.26
2022-11-08T17:17:43.185Z,14.19
2022-11-08T17:20:13.494Z,14.11
2022-11-08T17:22:41.370Z,14.01
2022-11-08T17:25:11.535Z,13.93
2022-11-08T17:27:38.621Z,13.85
2022-11-08T17:30:07.254Z,13.79
2022-11-08T17:32:36.541Z,13.72
2022-11-08T17:35:04.506Z,13.65
2022-11-08T17:37:31.935Z,13.59
2022-11-08T17:40:01.780Z,13.52
2022-11-08T17:42:32.762Z,13.46
2022-11-08T17:45:02.617Z,13.37
2022-11-08T17:47:29.587Z,13.27
2022-11-08T17:49:58.007Z,13.21
2022-11-08T17:52:25.081Z,13.16
2022-11-08T17:54:53.201Z,13.10
2022-11-08T17:57:20.341Z,13.04
2022-11-08T17:59:48.320Z,13.02
2022-11-08T18:02:16.885Z,13.00
2022-11-08T18:04:45.049Z,12.97
2022-11-08T18:07:13.611Z,12.90
2022-11-08T18:09:42.486Z,12.83
2022-11-08T18:12:11.035Z,12.76
2022-11-08T18:14:38.055Z,12.71
2022-11-08T18:17:06.259Z,12.68
2022-11-08T18:19:33.281Z,12.64
2022-11-08T18:22:00.740Z,12.61
2022-11-08T18:24:29.067Z,12.59
2022-11-08T18:26:56.126Z,12.56
2022-11-08T18:29:23.149Z,12.55
2022-11-08T18:31:50.152Z,12.49
2022-11-08T18:34:17.108Z,12.44
2022-11-08T18:36:44.184Z,12.40
2022-11-08T18:39:14.099Z,12.31
2022-11-08T18:41:46.778Z,12.24
2022-11-08T18:44:13.800Z,12.18
2022-11-08T18:46:43.485Z,12.11
2022-11-08T18:49:11.333Z,12.04
2022-11-08T18:51:38.428Z,11.97
2022-11-08T18:54:05.727Z,11.93
2022-11-08T18:56:32.871Z,11.87
2022-11-08T18:59:01.345Z,11.84
2022-11-08T19:01:30.123Z,11.81
2022-11-08T19:03:57.139Z,11.77
2022-11-08T19:06:24.187Z,11.75
2022-11-08T19:08:51.201Z,11.73
2022-11-08T19:11:22.825Z,11.73
2022-11-08T19:13:50.079Z,11.70
2022-11-08T19:16:20.221Z,11.70
2022-11-08T19:18:49.961Z,11.72
2022-11-08T19:21:18.826Z,11.72
2022-11-08T19:23:46.174Z,11.70
2022-11-08T19:26:15.451Z,11.72
2022-11-08T19:28:45.555Z,11.72
2022-11-08T19:31:13.276Z,11.73
2022-11-08T19:33:41.891Z,11.73
2022-11-08T19:36:12.140Z,11.68
2022-11-08T19:38:40.432Z,11.66
2022-11-08T19:41:09.342Z,11.57
2022-11-08T19:43:38.098Z,11.51
2022-11-08T19:46:07.694Z,11.43
2022-11-08T19:48:36.611Z,11.35
2022-11-08T19:51:07.173Z,11.33
2022-11-08T19:53:34.361Z,11.31
2022-11-08T19:56:01.424Z,11.25
2022-11-08T19:58:28.686Z,11.16
2022-11-08T20:00:55.666Z,11.11
2022-11-08T20:03:23.100Z,11.14
2022-11-08T20:05:51.284Z,11.14
2022-11-08T20:08:20.118Z,11.10
2022-11-08T20:10:51.408Z,11.14
2022-11-08T20:13:18.746Z,11.13
2022-11-08T20:15:45.957Z,11.15
2022-11-08T20:18:12.962Z,11.17
2022-11-08T20:20:40.583Z,11.13
2022-11-08T20:23:07.843Z,11.08
2022-11-08T20:25:37.277Z,11.04
2022-11-08T20:28:04.729Z,11.04
2022-11-08T20:30:31.985Z,10.89
2022-11-08T20:32:59.005Z,10.78
2022-11-08T20:35:26.497Z,10.76
2022-11-08T20:37:57.109Z,10.75
2022-11-08T20:40:24.107Z,10.73
2022-11-08T20:42:52.452Z,10.71
2022-11-08T20:45:19.411Z,10.66
2022-11-08T20:47:48.329Z,10.62
2022-11-08T20:50:20.814Z,10.45
2022-11-08T20:52:47.844Z,10.43
2022-11-08T20:55:15.105Z,10.44
2022-11-08T20:57:42.065Z,10.45
2022-11-08T21:00:13.828Z,10.46
2022-11-08T21:02:41.534Z,10.45
2022-11-08T21:05:09.389Z,10.40
2022-11-08T21:13:10.902Z,10.32
2022-11-08T21:15:39.341Z,10.31
2022-11-08T21:18:06.364Z,10.27
2022-11-08T21:20:33.342Z,10.22
2022-11-08T21:23:00.385Z,10.21
2022-11-08T21:25:28.592Z,10.20
2022-11-08T21:27:55.568Z,10.18
2022-11-08T21:30:22.580Z,10.14
2022-11-08T21:32:51.314Z,10.13
2022-11-08T21:35:18.341Z,10.09
2022-11-08T21:37:45.364Z,10.08
2022-11-08T21:40:12.402Z,10.06
2022-11-08T21:42:41.756Z,10.00
2022-11-08T21:45:11.891Z,9.94
2022-11-08T21:47:39.043Z,9.88
2022-11-08T21:50:08.420Z,9.83
2022-11-08T21:52:35.476Z,9.78
2022-11-08T21:55:02.409Z,9.75
2022-11-08T21:57:29.418Z,9.67
2022-11-08T21:59:56.486Z,9.55
2022-11-08T22:02:23.538Z,9.35
2022-11-08T22:04:50.469Z,9.20
2022-11-08T22:07:19.028Z,9.10
2022-11-08T22:09:46.888Z,9.03
2022-11-08T22:12:14.053Z,8.99
2022-11-08T22:14:41.032Z,8.95
2022-11-08T22:17:08.147Z,8.89
2022-11-08T22:19:35.101Z,8.85
2022-11-08T22:22:02.816Z,8.84
2022-11-08T22:24:31.482Z,8.86
2022-11-08T22:26:58.517Z,8.92
2022-11-08T22:29:25.713Z,8.98
2022-11-08T22:31:52.728Z,9.03
2022-11-08T22:34:22.603Z,9.06
2022-11-08T22:36:50.985Z,9.06
2022-11-08T22:39:19.887Z,9.05
2022-11-08T22:41:49.854Z,9.04
2022-11-08T22:44:18.781Z,9.00
2022-11-08T22:46:47.243Z,8.99
2022-11-08T22:49:14.668Z,8.95
2022-11-08T22:51:42.536Z,8.95
2022-11-08T22:54:09.929Z,8.94
2022-11-08T22:56:37.205Z,8.94
2022-11-08T22:59:05.696Z,8.94
2022-11-08T23:01:33.725Z,8.88
2022-11-08T23:04:00.791Z,8.85
2022-11-08T23:06:27.794Z,8.82
2022-11-08T23:08:54.772Z,8.81
2022-11-08T23:11:40.677Z,8.79
2022-11-08T23:14:33.952Z,8.78
2022-11-08T23:17:04.337Z,8.76
2022-11-08T23:19:50.630Z,8.72
2022-11-08T23:22:36.898Z,8.74
2022-11-08T23:25:04.346Z,8.71
2022-11-08T23:27:52.569Z,8.74
2022-11-08T23:30:39.954Z,8.77
2022-11-08T23:33:07.230Z,8.79
2022-11-08T23:35:34.509Z,8.81
2022-11-08T23:38:01.648Z,8.85
2022-11-08T23:40:47.306Z,8.88
2022-11-08T23:43:32.930Z,8.89
2022-11-08T23:46:07.629Z,8.82
2022-11-08T23:48:34.817Z,8.82
2022-11-08T23:51:02.074Z,8.85
2022-11-08T23:53:33.760Z,8.87
2022-11-08T23:56:00.840Z,8.91
2022-11-08T23:58:27.836Z,8.96
